createdAt,value
2023-03-23T15:58:44.237Z,3.65
2023-03-23T16:01:16.831Z,3.78
2023-03-23T16:03:48.090Z,4.50
2023-03-23T16:06:23.394Z,3.83
2023-03-23T16:08:55.406Z,4.15
2023-03-23T16:11:25.623Z,4.97
2023-03-23T16:13:53.680Z,3.80
2023-03-23T16:16:24.648Z,5.50
2023-03-23T16:18:53.358Z,3.53
2023-03-23T16:21:21.325Z,3.83
2023-03-23T16:23:49.354Z,4.75
2023-03-23T16:26:18.913Z,4.28
2023-03-23T16:28:46.782Z,4.10
2023-03-23T16:31:14.730Z,3.65
2023-03-23T16:33:42.920Z,3.92
2023-03-23T16:36:13.401Z,3.95
2023-03-23T16:38:49.131Z,4.03
2023-03-23T16:41:20.328Z,3.88
2023-03-23T16:43:48.245Z,3.60
2023-03-23T16:46:16.217Z,4.22
2023-03-23T16:48:44.155Z,4.00
2023-03-23T16:51:12.019Z,4.80
2023-03-23T16:53:40.388Z,4.38
2023-03-23T16:56:08.455Z,4.00
2023-03-23T16:58:37.730Z,4.78
2023-03-23T17:01:06.603Z,6.35
2023-03-23T17:03:34.778Z,5.00
2023-03-23T17:06:03.584Z,3.88
2023-03-23T17:08:31.866Z,3.60
2023-03-23T17:10:59.876Z,5.60
2023-03-23T17:13:28.588Z,9.35
2023-03-23T17:15:58.037Z,9.02
2023-03-23T17:18:26.391Z,5.63
2023-03-23T17:20:55.267Z,5.93
2023-03-23T17:23:24.596Z,5.20
2023-03-23T17:25:54.105Z,4.45
2023-03-23T17:28:22.215Z,4.65
2023-03-23T17:30:52.388Z,4.38
2023-03-23T17:33:22.286Z,4.70
2023-03-23T17:35:52.022Z,3.95
2023-03-23T17:38:20.259Z,4.55
2023-03-23T17:40:48.571Z,3.90
2023-03-23T17:43:16.893Z,3.80
2023-03-23T17:45:46.997Z,4.47
2023-03-23T17:48:15.266Z,4.65
2023-03-23T17:50:48.103Z,4.38
2023-03-23T17:53:18.548Z,4.50
2023-03-23T17:55:47.160Z,4.60
2023-03-23T17:58:15.749Z,4.97
2023-03-23T18:00:46.669Z,4.50
2023-03-23T18:03:14.930Z,4.75
2023-03-23T18:05:45.458Z,4.57
2023-03-23T18:08:13.513Z,4.38
2023-03-23T18:10:42.320Z,5.00
2023-03-23T18:13:11.502Z,4.85
2023-03-23T18:15:39.875Z,4.57
2023-03-23T18:18:07.952Z,4.80
2023-03-23T18:20:35.887Z,5.18
2023-03-23T18:23:07.014Z,5.10
2023-03-23T18:25:35.303Z,5.55
2023-03-23T18:28:05.268Z,5.40
2023-03-23T18:30:35.740Z,5.95
2023-03-23T18:33:03.817Z,5.10
2023-03-23T18:35:31.868Z,5.18
2023-03-23T18:38:00.291Z,4.70
2023-03-23T18:40:30.013Z,5.45
2023-03-23T18:42:58.133Z,5.15
2023-03-23T18:45:26.497Z,4.93
2023-03-23T18:47:54.719Z,5.03
2023-03-23T18:50:23.275Z,4.95
2023-03-23T18:52:51.446Z,4.70
2023-03-23T18:55:20.867Z,4.40
2023-03-23T18:57:51.994Z,4.65
2023-03-23T19:00:21.719Z,4.75
2023-03-23T19:02:51.951Z,5.10
2023-03-23T19:05:20.783Z,4.72
2023-03-23T19:07:48.872Z,4.45
2023-03-23T19:10:17.402Z,4.93
2023-03-23T19:12:46.595Z,6.72
2023-03-23T19:15:17.211Z,5.10
2023-03-23T19:17:45.822Z,5.20
2023-03-23T19:20:19.739Z,4.35
2023-03-23T19:23:02.736Z,5.35
2023-03-23T19:25:39.541Z,4.50
2023-03-23T19:30:44.676Z,4.55
2023-03-23T19:33:12.882Z,4.10
2023-03-23T19:35:41.543Z,5.20
2023-03-23T19:38:09.852Z,4.60
2023-03-23T19:40:42.101Z,5.00
2023-03-23T19:43:10.507Z,4.63
2023-03-23T19:45:41.871Z,4.60
2023-03-23T19:48:16.277Z,5.83
2023-03-23T19:50:52.779Z,5.40
2023-03-23T19:53:21.912Z,6.13
2023-03-23T19:55:50.104Z,5.90
2023-03-23T19:58:18.386Z,7.27
2023-03-23T20:00:48.622Z,8.48
2023-03-23T20:03:16.952Z,7.13
2023-03-23T20:05:45.563Z,6.80
2023-03-23T20:08:16.480Z,6.43
2023-03-23T20:10:44.721Z,6.53
2023-03-23T20:13:13.133Z,5.93
2023-03-23T20:15:41.262Z,6.43
2023-03-23T20:18:14.565Z,6.20
2023-03-23T20:20:42.567Z,6.47
2023-03-23T20:23:10.746Z,5.90
2023-03-23T20:25:39.210Z,6.50
2023-03-23T20:28:07.464Z,6.37
2023-03-23T20:30:35.763Z,6.30
2023-03-23T20:33:04.270Z,6.27
2023-03-23T20:35:33.722Z,6.60
2023-03-23T20:38:02.030Z,5.70
2023-03-23T20:40:30.372Z,6.00
2023-03-23T20:43:01.453Z,6.23
2023-03-23T20:45:29.410Z,6.50
2023-03-23T20:47:57.382Z,6.20
2023-03-23T20:50:25.401Z,6.20
2023-03-23T20:52:54.641Z,5.73
2023-03-23T20:55:22.536Z,5.90
2023-03-23T20:57:50.373Z,6.80
2023-03-23T21:00:18.668Z,6.37
2023-03-23T21:02:49.871Z,6.10
2023-03-23T21:05:17.904Z,6.33
2023-03-23T21:07:45.889Z,6.50
2023-03-23T21:10:15.185Z,5.53
2023-03-23T21:12:43.082Z,6.30
2023-03-23T21:15:11.492Z,5.70
2023-03-23T21:17:39.505Z,6.17
2023-03-23T21:20:11.052Z,6.43
2023-03-23T21:22:38.930Z,6.60
2023-03-23T21:25:07.655Z,6.30
2023-03-23T21:27:38.111Z,6.53
2023-03-23T21:30:07.072Z,6.17
2023-03-23T21:32:35.088Z,6.07
2023-03-23T21:35:04.483Z,6.60
2023-03-23T21:37:32.799Z,5.67
2023-03-23T21:40:00.728Z,6.03
2023-03-23T21:42:31.202Z,6.07
2023-03-23T21:45:02.766Z,6.33
2023-03-23T21:47:31.274Z,5.90
2023-03-23T21:49:59.279Z,6.40
2023-03-23T21:52:27.659Z,6.67
2023-03-23T21:54:58.856Z,5.83
2023-03-23T21:57:26.802Z,6.80
2023-03-23T21:59:54.774Z,6.07
2023-03-23T22:02:24.548Z,6.40
2023-03-23T22:04:53.261Z,6.30
2023-03-23T22:07:23.181Z,6.20
2023-03-23T22:09:51.864Z,6.30
2023-03-23T22:12:20.321Z,5.93
2023-03-23T22:14:48.320Z,6.20
2023-03-23T22:17:16.574Z,6.60
2023-03-23T22:19:46.117Z,6.30
2023-03-23T22:22:14.069Z,6.43
2023-03-23T22:24:42.032Z,6.27
2023-03-23T22:27:10.835Z,6.07
2023-03-23T22:29:38.783Z,6.17
2023-03-23T22:32:06.979Z,6.30
2023-03-23T22:34:35.062Z,7.33
2023-03-23T22:37:05.656Z,6.33
2023-03-23T22:39:34.500Z,6.43
2023-03-23T22:42:02.604Z,6.07
2023-03-23T22:44:30.481Z,6.50
2023-03-23T22:46:58.391Z,6.97
2023-03-23T22:49:26.521Z,6.43
2023-03-23T22:51:54.503Z,7.00
2023-03-23T22:54:24.010Z,6.70
2023-03-23T22:56:52.060Z,6.40
2023-03-23T22:59:20.302Z,6.93
2023-03-23T23:01:48.287Z,6.63
2023-03-23T23:04:16.319Z,6.30
2023-03-23T23:06:44.369Z,6.63
2023-03-23T23:09:12.367Z,6.37
2023-03-23T23:11:41.705Z,7.23
2023-03-23T23:14:09.743Z,7.07
2023-03-23T23:16:37.748Z,6.43
2023-03-23T23:19:06.066Z,7.43
2023-03-23T23:21:34.460Z,7.07
2023-03-23T23:24:02.425Z,7.93
2023-03-23T23:26:30.853Z,6.53
2023-03-23T23:29:01.213Z,7.37
2023-03-23T23:31:32.411Z,7.30
2023-03-23T23:34:02.084Z,7.90
2023-03-23T23:36:31.974Z,7.10
2023-03-23T23:39:01.278Z,7.40
2023-03-23T23:41:30.516Z,8.30
2023-03-23T23:44:00.076Z,7.13
2023-03-23T23:46:28.783Z,7.60
2023-03-23T23:48:56.863Z,7.53
2023-03-23T23:51:27.508Z,7.63
2023-03-23T23:53:58.796Z,7.40
2023-03-23T23:56:27.173Z,7.70
2023-03-23T23:58:55.422Z,7.30
